Station History

Weather Underground - logo

Station Historical Data
Daily Summary for March 2, 2018 Units:  Both    English   Metric
« Previous Day
Next Day »
Daily Weekly Monthly Yearly Custom
  High: Low: Average:
Temperature: 61.5 °F /  16.4 °C 47.9 °F /  8.8 °C 52.5 °F /  11.4 °C
Dew Point: 50.7 °F /  10.4 °C 45.6 °F /  7.6 °C 48.2 °F /  9 °C
Humidity: 96 % 58 % 86 %
Wind Speed: 8.1 mph /  13 km/h - 2 mph /  3.2 km/h
Wind Gust: 8.1 mph /  13 km/h - -
Wind:- - SSE
Pressure: 30.05 in /  1017.5 hPa 29.95 in /  1014.1 hPa -
Precipitation: 0.56 in /  14.22 mm    
Historical Graphs
 
 
Tabular Data for March 2, 2018
Time Temperature Dew Point Pressure Wind Wind Speed Wind Gust Humidity Rainfall Rate (Hourly)
00:04 51.3 °F /  10.7 °C 48.5 °F /  9.2 °C 29.96 in /  1014.4 hPa ESE 2.3 mph /  3.7 km/h 2.3 mph /  3.7 km/h 90 % 0.03 in /  0.76 mm
00:09 51.3 °F /  10.7 °C 48.5 °F /  9.2 °C 29.96 in /  1014.4 hPa SE 3.5 mph /  5.6 km/h 3.5 mph /  5.6 km/h 90 % 0.03 in /  0.76 mm
00:14 51.5 °F /  10.8 °C 48.7 °F /  9.3 °C 29.95 in /  1014.1 hPa SE 4.0 mph /  6.4 km/h 4.0 mph /  6.4 km/h 90 % 0.03 in /  0.76 mm
00:19 51.6 °F /  10.9 °C 48.5 °F /  9.2 °C 29.96 in /  1014.4 hPa East 3.5 mph /  5.6 km/h 3.5 mph /  5.6 km/h 89 % 0.03 in /  0.76 mm
00:24 51.5 °F /  10.8 °C 48.4 °F /  9.1 °C 29.95 in /  1014.1 hPa East 1.2 mph /  1.9 km/h 1.2 mph /  1.9 km/h 89 % 0.03 in /  0.76 mm
00:29 51.4 °F /  10.8 °C 48.6 °F /  9.2 °C 29.95 in /  1014.1 hPa ESE 3.5 mph /  5.6 km/h 3.5 mph /  5.6 km/h 90 % 0.02 in /  0.51 mm
00:34 51.4 °F /  10.8 °C 48.6 °F /  9.2 °C 29.95 in /  1014.1 hPa SE 3.5 mph /  5.6 km/h 3.5 mph /  5.6 km/h 90 % 0.02 in /  0.51 mm
00:39 51.4 °F /  10.8 °C 48.3 °F /  9.1 °C 29.95 in /  1014.1 hPa ESE 3.5 mph /  5.6 km/h 3.5 mph /  5.6 km/h 89 % 0.02 in /  0.51 mm
00:44 51.5 °F /  10.8 °C 48.4 °F /  9.1 °C 29.95 in /  1014.1 hPa SSE 5.8 mph /  9.3 km/h 5.8 mph /  9.3 km/h 89 % 0.01 in /  0.25 mm
00:49 51.5 °F /  10.8 °C 48.4 °F /  9.1 °C 29.95 in /  1014.1 hPa East 1.2 mph /  1.9 km/h 1.2 mph /  1.9 km/h 89 % 0.01 in /  0.25 mm
00:54 51.4 °F /  10.8 °C 48.3 °F /  9.1 °C 29.95 in /  1014.1 hPa East 2.3 mph /  3.7 km/h 2.3 mph /  3.7 km/h 89 % 0.01 in /  0.25 mm
00:59 51.5 °F /  10.8 °C 48.4 °F /  9.1 °C 29.95 in /  1014.1 hPa SSE 2.3 mph /  3.7 km/h 2.3 mph /  3.7 km/h 89 % 0.02 in /  0.51 mm
01:04 51.5 °F /  10.8 °C 48.4 °F /  9.1 °C 29.95 in /  1014.1 hPa SSE 1.2 mph /  1.9 km/h 1.2 mph /  1.9 km/h 89 % 0.02 in /  0.51 mm
01:09 51.4 °F /  10.8 °C 48.6 °F /  9.2 °C 29.95 in /  1014.1 hPa ESE 1.2 mph /  1.9 km/h   90 % 0.01 in /  0.25 mm
01:14 51.3 °F /  10.7 °C 48.5 °F /  9.2 °C 29.95 in /  1014.1 hPa ESE 1.2 mph /  1.9 km/h   90 % 0.02 in /  0.51 mm
01:19 51.2 °F /  10.7 °C 48.4 °F /  9.1 °C 29.96 in /  1014.4 hPa Calm     90 % 0.02 in /  0.51 mm
01:24 51.1 °F /  10.6 °C 48.6 °F /  9.2 °C 29.96 in /  1014.4 hPa Calm     91 % 0.03 in /  0.76 mm
01:29 51.0 °F /  10.6 °C 48.5 °F /  9.2 °C 29.97 in /  1014.8 hPa Calm     91 % 0.04 in /  1.02 mm
01:34 50.9 °F /  10.5 °C 48.7 °F /  9.3 °C 29.98 in /  1015.1 hPa Calm     92 % 0.05 in /  1.27 mm
01:39 50.8 °F /  10.4 °C 48.6 °F /  9.2 °C 29.97 in /  1014.8 hPa Calm     92 % 0.07 in /  1.78 mm
01:44 50.7 °F /  10.4 °C 48.7 °F /  9.3 °C 29.97 in /  1014.8 hPa Calm     93 % 0.08 in /  2.03 mm
01:49 50.6 °F /  10.3 °C 48.7 °F /  9.3 °C 29.96 in /  1014.4 hPa SE 2.3 mph /  3.7 km/h 2.3 mph /  3.7 km/h 93 % 0.09 in /  2.29 mm
01:54 50.6 °F /  10.3 °C 48.7 °F /  9.3 °C 29.97 in /  1014.8 hPa South 1.2 mph /  1.9 km/h 1.2 mph /  1.9 km/h 93 % 0.09 in /  2.29 mm
01:59 50.6 °F /  10.3 °C 48.7 °F /  9.3 °C 29.97 in /  1014.8 hPa SE 1.2 mph /  1.9 km/h 1.2 mph /  1.9 km/h 93 % 0.08 in /  2.03 mm
02:04 50.6 °F /  10.3 °C 48.7 °F /  9.3 °C 29.97 in /  1014.8 hPa SSE 3.5 mph /  5.6 km/h 3.5 mph /  5.6 km/h 93 % 0.08 in /  2.03 mm
02:09 50.6 °F /  10.3 °C 48.7 °F /  9.3 °C 29.97 in /  1014.8 hPa SE 1.2 mph /  1.9 km/h 1.2 mph /  1.9 km/h 93 % 0.09 in /  2.29 mm
02:14 50.6 °F /  10.3 °C 48.7 °F /  9.3 °C 29.97 in /  1014.8 hPa SSE 2.3 mph /  3.7 km/h 2.3 mph /  3.7 km/h 93 % 0.10 in /  2.54 mm
02:19 50.6 °F /  10.3 °C 48.7 °F /  9.3 °C 29.97 in /  1014.8 hPa SE 1.0 mph /  1.6 km/h 1.1 mph /  1.8 km/h 93 % 0.10 in /  2.54 mm
02:24 50.6 °F /  10.3 °C 48.7 °F /  9.3 °C 29.98 in /  1015.1 hPa SSE 1.2 mph /  1.9 km/h   93 % 0.10 in /  2.54 mm
02:29 50.6 °F /  10.3 °C 48.7 °F /  9.3 °C 29.99 in /  1015.5 hPa West 1.2 mph /  1.9 km/h 1.2 mph /  1.9 km/h 93 % 0.10 in /  2.54 mm
02:34 50.6 °F /  10.3 °C 48.7 °F /  9.3 °C 29.99 in /  1015.5 hPa SE 3.5 mph /  5.6 km/h 3.5 mph /  5.6 km/h 93 % 0.13 in /  3.3 mm
02:39 50.5 °F /  10.3 °C 48.8 °F /  9.3 °C 29.98 in /  1015.1 hPa SSE 3.5 mph /  5.6 km/h 3.5 mph /  5.6 km/h 94 % 0.14 in /  3.56 mm
02:44 50.4 °F /  10.2 °C 48.7 °F /  9.3 °C 29.97 in /  1014.8 hPa SE 1.2 mph /  1.9 km/h 1.2 mph /  1.9 km/h 94 % 0.17 in /  4.32 mm
02:49 50.3 °F /  10.2 °C 48.6 °F /  9.2 °C 29.97 in /  1014.8 hPa Calm     94 % 0.17 in /  4.32 mm
02:54 50.3 °F /  10.2 °C 48.6 °F /  9.2 °C 29.97 in /  1014.8 hPa SSE 1.2 mph /  1.9 km/h 1.2 mph /  1.9 km/h 94 % 0.18 in /  4.57 mm
02:59 50.2 °F /  10.1 °C 48.5 °F /  9.2 °C 29.97 in /  1014.8 hPa Calm     94 % 0.18 in /  4.57 mm
03:04 50.2 °F /  10.1 °C 48.5 °F /  9.2 °C 29.97 in /  1014.8 hPa SSE 1.2 mph /  1.9 km/h 1.2 mph /  1.9 km/h 94 % 0.20 in /  5.08 mm
03:09 50.2 °F /  10.1 °C 48.5 °F /  9.2 °C 29.98 in /  1015.1 hPa SSE 3.5 mph /  5.6 km/h 3.5 mph /  5.6 km/h 94 % 0.20 in /  5.08 mm
03:19 50.1 °F /  10.1 °C 48.7 °F /  9.3 °C 29.98 in /  1015.1 hPa SSE 2.3 mph /  3.7 km/h 2.3 mph /  3.7 km/h 95 % 0.22 in /  5.59 mm
03:24 50.1 °F /  10.1 °C 48.7 °F /  9.3 °C 29.99 in /  1015.5 hPa Calm     95 % 0.22 in /  5.59 mm
03:29 50.1 °F /  10.1 °C 48.7 °F /  9.3 °C 29.99 in /  1015.5 hPa Calm     95 % 0.24 in /  6.1 mm
03:34 50.1 °F /  10.1 °C 48.7 °F /  9.3 °C 30.00 in /  1015.8 hPa Calm     95 % 0.23 in /  5.84 mm
03:39 50.1 °F /  10.1 °C 48.7 °F /  9.3 °C 29.99 in /  1015.5 hPa SE 2.3 mph /  3.7 km/h 2.3 mph /  3.7 km/h 95 % 0.22 in /  5.59 mm
03:44 50.1 °F /  10.1 °C 48.7 °F /  9.3 °C 29.99 in /  1015.5 hPa SE 3.5 mph /  5.6 km/h 3.5 mph /  5.6 km/h 95 % 0.19 in /  4.83 mm
03:49 50.1 °F /  10.1 °C 48.7 °F /  9.3 °C 29.98 in /  1015.1 hPa SE 3.5 mph /  5.6 km/h 3.5 mph /  5.6 km/h 95 % 0.19 in /  4.83 mm
03:54 50.1 °F /  10.1 °C 48.7 °F /  9.3 °C 29.99 in /  1015.5 hPa SE 1.2 mph /  1.9 km/h 1.2 mph /  1.9 km/h 95 % 0.18 in /  4.57 mm
03:59 50.1 °F /  10.1 °C 48.7 °F /  9.3 °C 29.99 in /  1015.5 hPa SE 1.2 mph /  1.9 km/h   95 % 0.19 in /  4.83 mm
04:04 50.1 °F /  10.1 °C 48.7 °F /  9.3 °C 30.00 in /  1015.8 hPa SE 1.2 mph /  1.9 km/h   95 % 0.18 in /  4.57 mm
04:09 50.1 °F /  10.1 °C 48.7 °F /  9.3 °C 30.00 in /  1015.8 hPa SE 2.3 mph /  3.7 km/h 2.3 mph /  3.7 km/h 95 % 0.19 in /  4.83 mm
04:14 50.1 °F /  10.1 °C 48.7 °F /  9.3 °C 30.00 in /  1015.8 hPa ESE 3.5 mph /  5.6 km/h 3.5 mph /  5.6 km/h 95 % 0.16 in /  4.06 mm
04:19 50.1 °F /  10.1 °C 48.7 °F /  9.3 °C 30.00 in /  1015.8 hPa ESE 2.3 mph /  3.7 km/h 2.3 mph /  3.7 km/h 95 % 0.15 in /  3.81 mm
04:25 50.1 °F /  10.1 °C 48.7 °F /  9.3 °C 29.99 in /  1015.5 hPa SE 3.5 mph /  5.6 km/h 3.5 mph /  5.6 km/h 95 % 0.13 in /  3.3 mm
04:30 50.1 °F /  10.1 °C 48.7 °F /  9.3 °C 29.99 in /  1015.5 hPa SE 3.5 mph /  5.6 km/h 3.5 mph /  5.6 km/h 95 % 0.11 in /  2.79 mm
04:35 50.1 °F /  10.1 °C 48.7 °F /  9.3 °C 29.99 in /  1015.5 hPa SE 3.5 mph /  5.6 km/h 3.5 mph /  5.6 km/h 95 % 0.08 in /  2.03 mm
04:40 50.0 °F /  10 °C 48.6 °F /  9.2 °C 29.99 in /  1015.5 hPa SE 2.3 mph /  3.7 km/h 2.3 mph /  3.7 km/h 95 % 0.06 in /  1.52 mm
04:45 50.0 °F /  10 °C 48.6 °F /  9.2 °C 30.00 in /  1015.8 hPa SE 1.2 mph /  1.9 km/h 1.2 mph /  1.9 km/h 95 % 0.05 in /  1.27 mm
04:50 50.0 °F /  10 °C 48.9 °F /  9.4 °C 30.00 in /  1015.8 hPa SE 2.3 mph /  3.7 km/h 2.3 mph /  3.7 km/h 96 % 0.04 in /  1.02 mm
04:55 50.0 °F /  10 °C 48.9 °F /  9.4 °C 30.00 in /  1015.8 hPa East 1.2 mph /  1.9 km/h   96 % 0.05 in /  1.27 mm
05:00 50.0 °F /  10 °C 48.9 °F /  9.4 °C 30.00 in /  1015.8 hPa East 1.2 mph /  1.9 km/h 1.2 mph /  1.9 km/h 96 % 0.05 in /  1.27 mm
05:05 50.0 °F /  10 °C 48.9 °F /  9.4 °C 30.01 in /  1016.1 hPa East 1.2 mph /  1.9 km/h 1.2 mph /  1.9 km/h 96 % 0.04 in /  1.02 mm
05:10 49.9 °F /  9.9 °C 48.8 °F /  9.3 °C 30.00 in /  1015.8 hPa East 2.3 mph /  3.7 km/h 2.3 mph /  3.7 km/h 96 % 0.03 in /  0.76 mm
05:15 49.9 °F /  9.9 °C 48.8 °F /  9.3 °C 30.01 in /  1016.1 hPa East 2.3 mph /  3.7 km/h 2.3 mph /  3.7 km/h 96 % 0.03 in /  0.76 mm
05:20 49.9 °F /  9.9 °C 48.8 °F /  9.3 °C 30.01 in /  1016.1 hPa SSW 1.2 mph /  1.9 km/h 1.2 mph /  1.9 km/h 96 % 0.03 in /  0.76 mm
05:25 49.8 °F /  9.9 °C 48.7 °F /  9.3 °C 30.01 in /  1016.1 hPa SE 3.5 mph /  5.6 km/h 3.5 mph /  5.6 km/h 96 % 0.03 in /  0.76 mm
05:30 49.8 °F /  9.9 °C 48.7 °F /  9.3 °C 30.01 in /  1016.1 hPa SE 5.0 mph /  8 km/h 5.0 mph /  8 km/h 96 % 0.03 in /  0.76 mm
05:35 49.8 °F /  9.9 °C 48.7 °F /  9.3 °C 30.01 in /  1016.1 hPa SSE 4.0 mph /  6.4 km/h 4.0 mph /  6.4 km/h 96 % 0.03 in /  0.76 mm
05:40 49.7 °F /  9.8 °C 48.6 °F /  9.2 °C 30.01 in /  1016.1 hPa SSE 2.3 mph /  3.7 km/h 2.3 mph /  3.7 km/h 96 % 0.03 in /  0.76 mm
05:45 49.6 °F /  9.8 °C 48.5 °F /  9.2 °C 30.01 in /  1016.1 hPa SE 2.3 mph /  3.7 km/h 2.3 mph /  3.7 km/h 96 % 0.03 in /  0.76 mm
05:50 49.5 °F /  9.7 °C 48.4 °F /  9.1 °C 30.01 in /  1016.1 hPa SSE 4.6 mph /  7.4 km/h 4.6 mph /  7.4 km/h 96 % 0.03 in /  0.76 mm
05:55 49.5 °F /  9.7 °C 48.1 °F /  8.9 °C 30.01 in /  1016.1 hPa ESE 3.5 mph /  5.6 km/h 3.5 mph /  5.6 km/h 95 % 0.02 in /  0.51 mm
06:00 49.4 °F /  9.7 °C 48.0 °F /  8.9 °C 30.01 in /  1016.1 hPa East 2.3 mph /  3.7 km/h 2.3 mph /  3.7 km/h 95 % 0.01 in /  0.25 mm
06:05 49.3 °F /  9.6 °C 47.9 °F /  8.8 °C 30.01 in /  1016.1 hPa SE 1.2 mph /  1.9 km/h 1.2 mph /  1.9 km/h 95 % 0.01 in /  0.25 mm
06:10 49.3 °F /  9.6 °C 47.9 °F /  8.8 °C 30.01 in /  1016.1 hPa ENE 1.0 mph /  1.6 km/h 1.0 mph /  1.6 km/h 95 % 0.00 in /  0 mm
06:15 49.4 °F /  9.7 °C 48.3 °F /  9.1 °C 30.01 in /  1016.1 hPa ESE 2.0 mph /  3.2 km/h 2.0 mph /  3.2 km/h 96 % 0.00 in /  0 mm
06:20 49.4 °F /  9.7 °C 48.3 °F /  9.1 °C 30.02 in /  1016.5 hPa ESE 3.5 mph /  5.6 km/h 3.5 mph /  5.6 km/h 96 % 0.00 in /  0 mm
06:25 49.5 °F /  9.7 °C 48.4 °F /  9.1 °C 30.02 in /  1016.5 hPa ESE 6.0 mph /  9.7 km/h 6.0 mph /  9.7 km/h 96 % 0.00 in /  0 mm
06:30 49.5 °F /  9.7 °C 48.1 °F /  8.9 °C 30.02 in /  1016.5 hPa SE 5.8 mph /  9.3 km/h 5.8 mph /  9.3 km/h 95 % 0.00 in /  0 mm
06:35 49.5 °F /  9.7 °C 48.1 °F /  8.9 °C 30.02 in /  1016.5 hPa ENE 3.5 mph /  5.6 km/h 3.5 mph /  5.6 km/h 95 % 0.00 in /  0 mm
06:40 49.5 °F /  9.7 °C 48.1 °F /  8.9 °C 30.02 in /  1016.5 hPa SE 4.6 mph /  7.4 km/h 4.6 mph /  7.4 km/h 95 % 0.00 in /  0 mm
06:45 49.4 °F /  9.7 °C 48.0 °F /  8.9 °C 30.02 in /  1016.5 hPa SE 4.6 mph /  7.4 km/h 4.6 mph /  7.4 km/h 95 % 0.00 in /  0 mm
06:50 49.4 °F /  9.7 °C 48.0 °F /  8.9 °C 30.02 in /  1016.5 hPa ENE 3.5 mph /  5.6 km/h 3.5 mph /  5.6 km/h 95 % 0.00 in /  0 mm
06:55 49.4 °F /  9.7 °C 48.0 °F /  8.9 °C 30.02 in /  1016.5 hPa SE 5.8 mph /  9.3 km/h 5.8 mph /  9.3 km/h 95 % 0.00 in /  0 mm
07:00 49.3 °F /  9.6 °C 47.9 °F /  8.8 °C 30.02 in /  1016.5 hPa SSE 3.5 mph /  5.6 km/h 3.5 mph /  5.6 km/h 95 % 0.00 in /  0 mm
07:05 49.3 °F /  9.6 °C 47.9 °F /  8.8 °C 30.02 in /  1016.5 hPa SE 4.6 mph /  7.4 km/h 4.6 mph /  7.4 km/h 95 % 0.00 in /  0 mm
07:10 49.2 °F /  9.6 °C 47.8 °F /  8.8 °C 30.02 in /  1016.5 hPa SE 3.5 mph /  5.6 km/h 3.5 mph /  5.6 km/h 95 % 0.00 in /  0 mm
07:15 49.2 °F /  9.6 °C 47.5 °F /  8.6 °C 30.03 in /  1016.8 hPa SSE 5.8 mph /  9.3 km/h 5.8 mph /  9.3 km/h 94 % 0.00 in /  0 mm
07:20 49.2 °F /  9.6 °C 47.5 °F /  8.6 °C 30.03 in /  1016.8 hPa SE 8.1 mph /  13 km/h 8.1 mph /  13 km/h 94 % 0.00 in /  0 mm
07:25 49.2 °F /  9.6 °C 47.5 °F /  8.6 °C 30.03 in /  1016.8 hPa East 1.2 mph /  1.9 km/h 1.2 mph /  1.9 km/h 94 % 0.00 in /  0 mm
07:30 49.3 °F /  9.6 °C 47.6 °F /  8.7 °C 30.03 in /  1016.8 hPa ENE 2.3 mph /  3.7 km/h   94 % 0.00 in /  0 mm
07:35 49.5 °F /  9.7 °C 47.8 °F /  8.8 °C 30.03 in /  1016.8 hPa East 2.3 mph /  3.7 km/h 2.3 mph /  3.7 km/h 94 % 0.00 in /  0 mm
07:40 49.7 °F /  9.8 °C 48.0 °F /  8.9 °C 30.03 in /  1016.8 hPa SE 3.5 mph /  5.6 km/h 3.5 mph /  5.6 km/h 94 % 0.00 in /  0 mm
07:45 49.8 °F /  9.9 °C 48.1 °F /  8.9 °C 30.03 in /  1016.8 hPa ENE 3.5 mph /  5.6 km/h 3.5 mph /  5.6 km/h 94 % 0.00 in /  0 mm
07:50 49.9 °F /  9.9 °C 48.2 °F /  9 °C 30.04 in /  1017.2 hPa SSE 5.0 mph /  8 km/h 5.0 mph /  8 km/h 94 % 0.00 in /  0 mm
07:55 50.0 °F /  10 °C 48.3 °F /  9.1 °C 30.04 in /  1017.2 hPa SSE 2.3 mph /  3.7 km/h 2.3 mph /  3.7 km/h 94 % 0.00 in /  0 mm
08:00 50.1 °F /  10.1 °C 48.4 °F /  9.1 °C 30.04 in /  1017.2 hPa SE 3.5 mph /  5.6 km/h 3.5 mph /  5.6 km/h 94 % 0.00 in /  0 mm
08:05 50.2 °F /  10.1 °C 48.5 °F /  9.2 °C 30.04 in /  1017.2 hPa SSE 3.0 mph /  4.8 km/h 3.0 mph /  4.8 km/h 94 % 0.00 in /  0 mm
08:10 50.3 °F /  10.2 °C 48.6 °F /  9.2 °C 30.04 in /  1017.2 hPa East 4.6 mph /  7.4 km/h 4.6 mph /  7.4 km/h 94 % 0.00 in /  0 mm
08:15 50.4 °F /  10.2 °C 48.7 °F /  9.3 °C 30.04 in /  1017.2 hPa East 3.5 mph /  5.6 km/h 3.5 mph /  5.6 km/h 94 % 0.00 in /  0 mm
08:20 50.5 °F /  10.3 °C 48.6 °F /  9.2 °C 30.04 in /  1017.2 hPa East 5.8 mph /  9.3 km/h 5.8 mph /  9.3 km/h 93 % 0.00 in /  0 mm
08:25 50.7 °F /  10.4 °C 48.7 °F /  9.3 °C 30.04 in /  1017.2 hPa ENE 3.5 mph /  5.6 km/h 3.5 mph /  5.6 km/h 93 % 0.00 in /  0 mm
08:30 50.9 °F /  10.5 °C 48.7 °F /  9.3 °C 30.04 in /  1017.2 hPa ENE 2.0 mph /  3.2 km/h 2.0 mph /  3.2 km/h 92 % 0.00 in /  0 mm
08:35 51.0 °F /  10.6 °C 48.8 °F /  9.3 °C 30.04 in /  1017.2 hPa East 4.6 mph /  7.4 km/h 4.6 mph /  7.4 km/h 92 % 0.00 in /  0 mm
08:41 51.2 °F /  10.7 °C 49.0 °F /  9.4 °C 30.03 in /  1016.8 hPa East 3.5 mph /  5.6 km/h 3.5 mph /  5.6 km/h 92 % 0.00 in /  0 mm
08:46 51.3 °F /  10.7 °C 49.1 °F /  9.5 °C 30.04 in /  1017.2 hPa East 2.3 mph /  3.7 km/h 2.3 mph /  3.7 km/h 92 % 0.00 in /  0 mm
08:51 51.3 °F /  10.7 °C 49.1 °F /  9.5 °C 30.04 in /  1017.2 hPa ENE 1.0 mph /  1.6 km/h 1.0 mph /  1.6 km/h 92 % 0.00 in /  0 mm
08:56 51.3 °F /  10.7 °C 49.1 °F /  9.5 °C 30.04 in /  1017.2 hPa East 3.5 mph /  5.6 km/h 3.5 mph /  5.6 km/h 92 % 0.00 in /  0 mm
09:01 51.4 °F /  10.8 °C 49.2 °F /  9.6 °C 30.04 in /  1017.2 hPa East 2.3 mph /  3.7 km/h 2.3 mph /  3.7 km/h 92 % 0.00 in /  0 mm
09:06 51.5 °F /  10.8 °C 49.3 °F /  9.6 °C 30.04 in /  1017.2 hPa NE 2.3 mph /  3.7 km/h 2.3 mph /  3.7 km/h 92 % 0.00 in /  0 mm
09:11 51.7 °F /  10.9 °C 49.7 °F /  9.8 °C 30.04 in /  1017.2 hPa East 3.5 mph /  5.6 km/h 3.5 mph /  5.6 km/h 93 % 0.00 in /  0 mm
09:16 52.0 °F /  11.1 °C 49.7 °F /  9.8 °C 30.04 in /  1017.2 hPa SSE 4.6 mph /  7.4 km/h 4.6 mph /  7.4 km/h 92 % 0.00 in /  0 mm
09:21 52.3 °F /  11.3 °C 50.0 °F /  10 °C 30.05 in /  1017.5 hPa East 3.5 mph /  5.6 km/h 3.5 mph /  5.6 km/h 92 % 0.00 in /  0 mm
09:26 52.4 °F /  11.3 °C 50.1 °F /  10.1 °C 30.04 in /  1017.2 hPa SE 5.0 mph /  8 km/h 5.0 mph /  8 km/h 92 % 0.00 in /  0 mm
09:31 52.5 °F /  11.4 °C 49.9 °F /  9.9 °C 30.05 in /  1017.5 hPa East 1.2 mph /  1.9 km/h 1.2 mph /  1.9 km/h 91 % 0.00 in /  0 mm
09:36 52.8 °F /  11.6 °C 50.2 °F /  10.1 °C 30.05 in /  1017.5 hPa East 3.0 mph /  4.8 km/h 3.0 mph /  4.8 km/h 91 % 0.00 in /  0 mm
09:41 52.9 °F /  11.6 °C 50.3 °F /  10.2 °C 30.05 in /  1017.5 hPa SSE 2.3 mph /  3.7 km/h 2.3 mph /  3.7 km/h 91 % 0.00 in /  0 mm
09:46 53.0 °F /  11.7 °C 50.1 °F /  10.1 °C 30.05 in /  1017.5 hPa SW 3.0 mph /  4.8 km/h 3.0 mph /  4.8 km/h 90 % 0.00 in /  0 mm
09:51 53.0 °F /  11.7 °C 50.1 °F /  10.1 °C 30.05 in /  1017.5 hPa SSE 3.5 mph /  5.6 km/h 3.5 mph /  5.6 km/h 90 % 0.00 in /  0 mm
09:56 52.9 °F /  11.6 °C 50.0 °F /  10 °C 30.05 in /  1017.5 hPa SSE 3.5 mph /  5.6 km/h 3.5 mph /  5.6 km/h 90 % 0.00 in /  0 mm
10:01 52.9 °F /  11.6 °C 49.7 °F /  9.8 °C 30.04 in /  1017.2 hPa SSE 3.5 mph /  5.6 km/h 3.5 mph /  5.6 km/h 89 % 0.00 in /  0 mm
10:06 53.1 °F /  11.7 °C 50.2 °F /  10.1 °C 30.05 in /  1017.5 hPa SSE 2.3 mph /  3.7 km/h 2.3 mph /  3.7 km/h 90 % 0.00 in /  0 mm
10:11 53.1 °F /  11.7 °C 49.9 °F /  9.9 °C 30.05 in /  1017.5 hPa East 5.0 mph /  8 km/h 5.0 mph /  8 km/h 89 % 0.00 in /  0 mm
10:16 53.1 °F /  11.7 °C 49.6 °F /  9.8 °C 30.05 in /  1017.5 hPa SSE 2.3 mph /  3.7 km/h 2.3 mph /  3.7 km/h 88 % 0.00 in /  0 mm
10:21 53.1 °F /  11.7 °C 49.9 °F /  9.9 °C 30.04 in /  1017.2 hPa SSE 3.5 mph /  5.6 km/h   89 % 0.00 in /  0 mm
10:26 53.2 °F /  11.8 °C 50.0 °F /  10 °C 30.04 in /  1017.2 hPa SSE 2.3 mph /  3.7 km/h 2.3 mph /  3.7 km/h 89 % 0.00 in /  0 mm
10:31 53.4 °F /  11.9 °C 50.2 °F /  10.1 °C 30.04 in /  1017.2 hPa East 2.3 mph /  3.7 km/h 2.3 mph /  3.7 km/h 89 % 0.00 in /  0 mm
10:36 53.6 °F /  12 °C 49.8 °F /  9.9 °C 30.04 in /  1017.2 hPa ESE 2.3 mph /  3.7 km/h 2.3 mph /  3.7 km/h 87 % 0.00 in /  0 mm
10:41 53.9 °F /  12.2 °C 50.4 °F /  10.2 °C 30.04 in /  1017.2 hPa Calm     88 % 0.00 in /  0 mm
10:46 54.2 °F /  12.3 °C 50.7 °F /  10.4 °C 30.04 in /  1017.2 hPa SW 2.3 mph /  3.7 km/h 2.3 mph /  3.7 km/h 88 % 0.00 in /  0 mm
10:51 54.4 °F /  12.4 °C 50.3 °F /  10.2 °C 30.04 in /  1017.2 hPa SSE 1.2 mph /  1.9 km/h 1.2 mph /  1.9 km/h 86 % 0.00 in /  0 mm
10:56 54.5 °F /  12.5 °C 50.1 °F /  10.1 °C 30.04 in /  1017.2 hPa South 3.5 mph /  5.6 km/h 3.5 mph /  5.6 km/h 85 % 0.00 in /  0 mm
11:01 54.7 °F /  12.6 °C 50.3 °F /  10.2 °C 30.03 in /  1016.8 hPa South 2.3 mph /  3.7 km/h 2.3 mph /  3.7 km/h 85 % 0.00 in /  0 mm
11:06 54.7 °F /  12.6 °C 50.0 °F /  10 °C 30.04 in /  1017.2 hPa SSE 3.5 mph /  5.6 km/h 3.5 mph /  5.6 km/h 84 % 0.00 in /  0 mm
11:11 54.7 °F /  12.6 °C 50.0 °F /  10 °C 30.03 in /  1016.8 hPa ESE 1.2 mph /  1.9 km/h 1.2 mph /  1.9 km/h 84 % 0.00 in /  0 mm
11:16 54.8 °F /  12.7 °C 50.4 °F /  10.2 °C 30.04 in /  1017.2 hPa East 3.5 mph /  5.6 km/h 3.5 mph /  5.6 km/h 85 % 0.00 in /  0 mm
11:21 54.9 °F /  12.7 °C 50.2 °F /  10.1 °C 30.04 in /  1017.2 hPa SE 1.2 mph /  1.9 km/h 1.2 mph /  1.9 km/h 84 % 0.00 in /  0 mm
11:26 55.1 °F /  12.8 °C 50.4 °F /  10.2 °C 30.03 in /  1016.8 hPa SSE 2.3 mph /  3.7 km/h 2.3 mph /  3.7 km/h 84 % 0.00 in /  0 mm
11:31 55.4 °F /  13 °C 50.3 °F /  10.2 °C 30.03 in /  1016.8 hPa SSW 1.2 mph /  1.9 km/h 1.2 mph /  1.9 km/h 83 % 0.00 in /  0 mm
11:36 55.7 °F /  13.2 °C 50.3 °F /  10.2 °C 30.03 in /  1016.8 hPa NNW 2.3 mph /  3.7 km/h 2.3 mph /  3.7 km/h 82 % 0.00 in /  0 mm
11:41 56.2 °F /  13.4 °C 50.4 °F /  10.2 °C 30.03 in /  1016.8 hPa South 3.5 mph /  5.6 km/h 3.5 mph /  5.6 km/h 81 % 0.00 in /  0 mm
11:46 56.3 °F /  13.5 °C 49.9 °F /  9.9 °C 30.04 in /  1017.2 hPa NW 2.3 mph /  3.7 km/h 2.3 mph /  3.7 km/h 79 % 0.00 in /  0 mm
11:51 56.3 °F /  13.5 °C 50.2 °F /  10.1 °C 30.03 in /  1016.8 hPa SW 2.3 mph /  3.7 km/h 2.3 mph /  3.7 km/h 80 % 0.00 in /  0 mm
11:56 55.8 °F /  13.2 °C 50.4 °F /  10.2 °C 30.03 in /  1016.8 hPa NW 3.5 mph /  5.6 km/h 3.5 mph /  5.6 km/h 82 % 0.00 in /  0 mm
12:01 55.7 °F /  13.2 °C 50.3 °F /  10.2 °C 30.03 in /  1016.8 hPa NW 3.5 mph /  5.6 km/h 3.5 mph /  5.6 km/h 82 % 0.00 in /  0 mm
12:06 55.5 °F /  13.1 °C 49.1 °F /  9.5 °C 30.03 in /  1016.8 hPa NW 3.5 mph /  5.6 km/h 3.5 mph /  5.6 km/h 79 % 0.00 in /  0 mm
12:12 55.5 °F /  13.1 °C 48.4 °F /  9.1 °C 30.03 in /  1016.8 hPa NW 3.5 mph /  5.6 km/h 3.5 mph /  5.6 km/h 77 % 0.00 in /  0 mm
12:17 55.3 °F /  12.9 °C 48.2 °F /  9 °C 30.03 in /  1016.8 hPa NNE 3.5 mph /  5.6 km/h 3.5 mph /  5.6 km/h 77 % 0.00 in /  0 mm
12:22 55.5 °F /  13.1 °C 48.1 °F /  8.9 °C 30.03 in /  1016.8 hPa NW 2.3 mph /  3.7 km/h 2.3 mph /  3.7 km/h 76 % 0.00 in /  0 mm
12:27 56.3 °F /  13.5 °C 48.8 °F /  9.3 °C 30.03 in /  1016.8 hPa NW 2.3 mph /  3.7 km/h 2.3 mph /  3.7 km/h 76 % 0.00 in /  0 mm
12:32 57.0 °F /  13.9 °C 48.8 °F /  9.3 °C 30.02 in /  1016.5 hPa WNW 3.5 mph /  5.6 km/h 3.5 mph /  5.6 km/h 74 % 0.00 in /  0 mm
12:37 57.5 °F /  14.2 °C 48.5 °F /  9.2 °C 30.02 in /  1016.5 hPa NW 2.3 mph /  3.7 km/h 2.3 mph /  3.7 km/h 72 % 0.00 in /  0 mm
12:42 57.7 °F /  14.3 °C 48.7 °F /  9.3 °C 30.02 in /  1016.5 hPa NW 2.0 mph /  3.2 km/h 2.0 mph /  3.2 km/h 72 % 0.00 in /  0 mm
12:47 57.5 °F /  14.2 °C 47.8 °F /  8.8 °C 30.02 in /  1016.5 hPa WNW 1.2 mph /  1.9 km/h 1.2 mph /  1.9 km/h 70 % 0.00 in /  0 mm
12:52 57.5 °F /  14.2 °C 48.9 °F /  9.4 °C 30.01 in /  1016.1 hPa NNW 1.2 mph /  1.9 km/h 1.2 mph /  1.9 km/h 73 % 0.00 in /  0 mm
12:57 57.8 °F /  14.3 °C 48.8 °F /  9.3 °C 30.01 in /  1016.1 hPa NW 2.3 mph /  3.7 km/h 2.3 mph /  3.7 km/h 72 % 0.00 in /  0 mm
13:02 58.1 °F /  14.5 °C 48.7 °F /  9.3 °C 30.01 in /  1016.1 hPa WNW 2.3 mph /  3.7 km/h 2.3 mph /  3.7 km/h 71 % 0.00 in /  0 mm
13:07 58.2 °F /  14.6 °C 48.5 °F /  9.2 °C 30.01 in /  1016.1 hPa Calm     70 % 0.00 in /  0 mm
13:12 58.5 °F /  14.7 °C 49.1 °F /  9.5 °C 30.01 in /  1016.1 hPa Calm   0.3 mph /  0.5 km/h 71 % 0.00 in /  0 mm
13:17 58.7 °F /  14.8 °C 48.6 °F /  9.2 °C 30.01 in /  1016.1 hPa Calm     69 % 0.00 in /  0 mm
13:22 58.7 °F /  14.8 °C 48.2 °F /  9 °C 30.01 in /  1016.1 hPa West 2.3 mph /  3.7 km/h 2.3 mph /  3.7 km/h 68 % 0.00 in /  0 mm
13:27 58.7 °F /  14.8 °C 49.3 °F /  9.6 °C 30.00 in /  1015.8 hPa SSE 1.0 mph /  1.6 km/h 1.0 mph /  1.6 km/h 71 % 0.00 in /  0 mm
13:32 59.7 °F /  15.4 °C 50.7 °F /  10.4 °C 30.00 in /  1015.8 hPa Calm     72 % 0.00 in /  0 mm
13:37 60.4 °F /  15.8 °C 49.0 °F /  9.4 °C 30.00 in /  1015.8 hPa NW 1.2 mph /  1.9 km/h 1.2 mph /  1.9 km/h 66 % 0.00 in /  0 mm
13:42 61.1 °F /  16.2 °C 49.2 °F /  9.6 °C 30.00 in /  1015.8 hPa SSE 2.3 mph /  3.7 km/h 2.3 mph /  3.7 km/h 65 % 0.00 in /  0 mm
13:47 60.9 °F /  16.1 °C 48.6 °F /  9.2 °C 30.00 in /  1015.8 hPa SSW 2.3 mph /  3.7 km/h   64 % 0.00 in /  0 mm
13:52 60.7 °F /  15.9 °C 49.3 °F /  9.6 °C 30.00 in /  1015.8 hPa Calm   0.1 mph /  0.2 km/h 66 % 0.00 in /  0 mm
13:57 60.7 °F /  15.9 °C 48.4 °F /  9.1 °C 30.00 in /  1015.8 hPa SSE 2.3 mph /  3.7 km/h 2.3 mph /  3.7 km/h 64 % 0.00 in /  0 mm
14:02 60.6 °F /  15.9 °C 48.4 °F /  9.1 °C 30.00 in /  1015.8 hPa Calm   0.1 mph /  0.2 km/h 64 % 0.00 in /  0 mm
14:07 60.5 °F /  15.8 °C 48.7 °F /  9.3 °C 30.00 in /  1015.8 hPa SSE 1.0 mph /  1.6 km/h   65 % 0.00 in /  0 mm
14:12 60.6 °F /  15.9 °C 48.4 °F /  9.1 °C 30.00 in /  1015.8 hPa South 3.5 mph /  5.6 km/h 3.5 mph /  5.6 km/h 64 % 0.00 in /  0 mm
14:18 60.6 °F /  15.9 °C 48.4 °F /  9.1 °C 30.00 in /  1015.8 hPa East 1.2 mph /  1.9 km/h 1.2 mph /  1.9 km/h 64 % 0.00 in /  0 mm
14:23 60.8 °F /  16 °C 49.0 °F /  9.4 °C 29.99 in /  1015.5 hPa SSE 2.3 mph /  3.7 km/h 2.3 mph /  3.7 km/h 65 % 0.00 in /  0 mm
14:27 61.4 °F /  16.3 °C 49.1 °F /  9.5 °C 29.99 in /  1015.5 hPa SE 4.0 mph /  6.4 km/h 4.0 mph /  6.4 km/h 64 % 0.00 in /  0 mm
14:33 61.5 °F /  16.4 °C 48.4 °F /  9.1 °C 29.99 in /  1015.5 hPa SE 3.5 mph /  5.6 km/h 3.5 mph /  5.6 km/h 62 % 0.00 in /  0 mm
14:38 61.4 °F /  16.3 °C 49.1 °F /  9.5 °C 29.99 in /  1015.5 hPa ESE 3.5 mph /  5.6 km/h 3.5 mph /  5.6 km/h 64 % 0.00 in /  0 mm
14:43 61.2 °F /  16.2 °C 48.5 °F /  9.2 °C 29.99 in /  1015.5 hPa SE 3.5 mph /  5.6 km/h 3.5 mph /  5.6 km/h 63 % 0.00 in /  0 mm
14:48 61.4 °F /  16.3 °C 49.1 °F /  9.5 °C 29.99 in /  1015.5 hPa Calm     64 % 0.00 in /  0 mm
14:53 61.2 °F /  16.2 °C 48.1 °F /  8.9 °C 29.99 in /  1015.5 hPa SE 3.5 mph /  5.6 km/h 3.5 mph /  5.6 km/h 62 % 0.00 in /  0 mm
14:58 60.7 °F /  15.9 °C 47.6 °F /  8.7 °C 29.98 in /  1015.1 hPa SSE 1.2 mph /  1.9 km/h 1.2 mph /  1.9 km/h 62 % 0.00 in /  0 mm
15:03 60.5 °F /  15.8 °C 45.6 °F /  7.6 °C 29.98 in /  1015.1 hPa ESE 2.3 mph /  3.7 km/h 2.3 mph /  3.7 km/h 58 % 0.00 in /  0 mm
15:08 60.3 °F /  15.7 °C 46.4 °F /  8 °C 29.98 in /  1015.1 hPa SE 1.2 mph /  1.9 km/h   60 % 0.00 in /  0 mm
15:13 60.2 °F /  15.7 °C 46.3 °F /  7.9 °C 29.98 in /  1015.1 hPa Calm     60 % 0.00 in /  0 mm
15:18 60.0 °F /  15.6 °C 46.5 °F /  8.1 °C 29.98 in /  1015.1 hPa South 2.3 mph /  3.7 km/h 2.3 mph /  3.7 km/h 61 % 0.00 in /  0 mm
15:23 60.0 °F /  15.6 °C 46.9 °F /  8.3 °C 29.98 in /  1015.1 hPa SSE 2.3 mph /  3.7 km/h 2.3 mph /  3.7 km/h 62 % 0.00 in /  0 mm
15:28 59.9 °F /  15.5 °C 46.0 °F /  7.8 °C 29.98 in /  1015.1 hPa NW 1.2 mph /  1.9 km/h 1.2 mph /  1.9 km/h 60 % 0.00 in /  0 mm
15:33 59.9 °F /  15.5 °C 46.4 °F /  8 °C 29.98 in /  1015.1 hPa SSE 1.2 mph /  1.9 km/h   61 % 0.00 in /  0 mm
15:38 59.9 °F /  15.5 °C 46.8 °F /  8.2 °C 29.98 in /  1015.1 hPa SSE 1.2 mph /  1.9 km/h 1.2 mph /  1.9 km/h 62 % 0.00 in /  0 mm
15:43 59.8 °F /  15.4 °C 45.9 °F /  7.7 °C 29.98 in /  1015.1 hPa NW 3.5 mph /  5.6 km/h 3.5 mph /  5.6 km/h 60 % 0.00 in /  0 mm
15:48 59.7 °F /  15.4 °C 46.2 °F /  7.9 °C 29.98 in /  1015.1 hPa NW 1.2 mph /  1.9 km/h 1.2 mph /  1.9 km/h 61 % 0.00 in /  0 mm
15:53 59.5 °F /  15.3 °C 46.0 °F /  7.8 °C 29.98 in /  1015.1 hPa NNW 1.2 mph /  1.9 km/h 1.2 mph /  1.9 km/h 61 % 0.00 in /  0 mm
15:58 59.3 °F /  15.2 °C 46.7 °F /  8.2 °C 29.98 in /  1015.1 hPa West 3.5 mph /  5.6 km/h 3.5 mph /  5.6 km/h 63 % 0.00 in /  0 mm
16:03 58.8 °F /  14.9 °C 47.9 °F /  8.8 °C 29.98 in /  1015.1 hPa NW 5.0 mph /  8 km/h 5.0 mph /  8 km/h 67 % 0.00 in /  0 mm
16:08 58.0 °F /  14.4 °C 47.5 °F /  8.6 °C 29.98 in /  1015.1 hPa NNW 4.6 mph /  7.4 km/h 4.6 mph /  7.4 km/h 68 % 0.00 in /  0 mm
16:13 57.6 °F /  14.2 °C 47.5 °F /  8.6 °C 29.98 in /  1015.1 hPa NW 3.5 mph /  5.6 km/h 3.5 mph /  5.6 km/h 69 % 0.00 in /  0 mm
16:18 57.2 °F /  14 °C 47.1 °F /  8.4 °C 29.98 in /  1015.1 hPa NNW 3.5 mph /  5.6 km/h 3.5 mph /  5.6 km/h 69 % 0.00 in /  0 mm
16:23 56.8 °F /  13.8 °C 47.5 °F /  8.6 °C 29.98 in /  1015.1 hPa NW 3.0 mph /  4.8 km/h 3.0 mph /  4.8 km/h 71 % 0.00 in /  0 mm
16:28 56.4 °F /  13.6 °C 47.9 °F /  8.8 °C 29.99 in /  1015.5 hPa NNW 3.5 mph /  5.6 km/h 3.5 mph /  5.6 km/h 73 % 0.00 in /  0 mm
16:33 56.2 °F /  13.4 °C 47.7 °F /  8.7 °C 29.99 in /  1015.5 hPa North 3.5 mph /  5.6 km/h 3.5 mph /  5.6 km/h 73 % 0.00 in /  0 mm
16:38 56.1 °F /  13.4 °C 48.3 °F /  9.1 °C 29.99 in /  1015.5 hPa NW 5.8 mph /  9.3 km/h 5.8 mph /  9.3 km/h 75 % 0.00 in /  0 mm
16:43 55.8 °F /  13.2 °C 49.4 °F /  9.7 °C 29.99 in /  1015.5 hPa WNW 2.3 mph /  3.7 km/h 2.3 mph /  3.7 km/h 79 % 0.00 in /  0 mm
16:48 55.0 °F /  12.8 °C 49.3 °F /  9.6 °C 29.99 in /  1015.5 hPa NW 3.5 mph /  5.6 km/h 3.5 mph /  5.6 km/h 81 % 0.01 in /  0.25 mm
16:53 54.3 °F /  12.4 °C 49.2 °F /  9.6 °C 29.99 in /  1015.5 hPa NW 2.3 mph /  3.7 km/h 2.3 mph /  3.7 km/h 83 % 0.01 in /  0.25 mm
16:58 53.9 °F /  12.2 °C 49.5 °F /  9.7 °C 29.99 in /  1015.5 hPa West 2.3 mph /  3.7 km/h 2.3 mph /  3.7 km/h 85 % 0.01 in /  0.25 mm
17:03 53.7 °F /  12.1 °C 49.6 °F /  9.8 °C 29.99 in /  1015.5 hPa WNW 2.3 mph /  3.7 km/h 2.3 mph /  3.7 km/h 86 % 0.01 in /  0.25 mm
17:08 53.6 °F /  12 °C 49.5 °F /  9.7 °C 29.99 in /  1015.5 hPa WNW 2.3 mph /  3.7 km/h 2.3 mph /  3.7 km/h 86 % 0.01 in /  0.25 mm
17:13 53.6 °F /  12 °C 49.5 °F /  9.7 °C 29.99 in /  1015.5 hPa NW 1.2 mph /  1.9 km/h 1.2 mph /  1.9 km/h 86 % 0.01 in /  0.25 mm
17:18 53.5 °F /  11.9 °C 49.4 °F /  9.7 °C 29.99 in /  1015.5 hPa West 3.5 mph /  5.6 km/h 3.5 mph /  5.6 km/h 86 % 0.01 in /  0.25 mm
17:23 53.4 °F /  11.9 °C 49.3 °F /  9.6 °C 29.99 in /  1015.5 hPa WNW 3.5 mph /  5.6 km/h 3.5 mph /  5.6 km/h 86 % 0.01 in /  0.25 mm
17:28 53.2 °F /  11.8 °C 48.8 °F /  9.3 °C 29.99 in /  1015.5 hPa SSW 1.2 mph /  1.9 km/h 1.2 mph /  1.9 km/h 85 % 0.01 in /  0.25 mm
17:33 53.0 °F /  11.7 °C 48.3 °F /  9.1 °C 29.99 in /  1015.5 hPa Calm     84 % 0.01 in /  0.25 mm
17:38 52.8 °F /  11.6 °C 47.8 °F /  8.8 °C 29.99 in /  1015.5 hPa NNW 3.5 mph /  5.6 km/h   83 % 0.01 in /  0.25 mm
17:43 52.6 °F /  11.4 °C 48.2 °F /  9 °C 29.99 in /  1015.5 hPa South 1.2 mph /  1.9 km/h   85 % 0.01 in /  0.25 mm
17:48 52.3 °F /  11.3 °C 47.9 °F /  8.8 °C 29.99 in /  1015.5 hPa South 1.2 mph /  1.9 km/h 1.2 mph /  1.9 km/h 85 % 0.01 in /  0.25 mm
17:53 51.9 °F /  11.1 °C 47.5 °F /  8.6 °C 29.98 in /  1015.1 hPa Calm     85 % 0.01 in /  0.25 mm
17:58 51.8 °F /  11 °C 47.7 °F /  8.7 °C 29.99 in /  1015.5 hPa Calm     86 % 0.01 in /  0.25 mm
18:03 51.6 °F /  10.9 °C 48.2 °F /  9 °C 29.99 in /  1015.5 hPa Calm     88 % 0.01 in /  0.25 mm
18:08 51.5 °F /  10.8 °C 48.1 °F /  8.9 °C 29.99 in /  1015.5 hPa Calm     88 % 0.01 in /  0.25 mm
18:13 51.4 °F /  10.8 °C 47.7 °F /  8.7 °C 30.00 in /  1015.8 hPa ESE 1.2 mph /  1.9 km/h 1.2 mph /  1.9 km/h 87 % 0.01 in /  0.25 mm
18:18 51.3 °F /  10.7 °C 47.9 °F /  8.8 °C 30.00 in /  1015.8 hPa Calm     88 % 0.01 in /  0.25 mm
18:23 51.3 °F /  10.7 °C 47.6 °F /  8.7 °C 30.00 in /  1015.8 hPa ESE 1.2 mph /  1.9 km/h 1.2 mph /  1.9 km/h 87 % 0.01 in /  0.25 mm
18:28 51.3 °F /  10.7 °C 47.6 °F /  8.7 °C 29.99 in /  1015.5 hPa SE 1.2 mph /  1.9 km/h 1.2 mph /  1.9 km/h 87 % 0.01 in /  0.25 mm
18:33 51.1 °F /  10.6 °C 47.4 °F /  8.6 °C 30.00 in /  1015.8 hPa SE 1.2 mph /  1.9 km/h 1.2 mph /  1.9 km/h 87 % 0.01 in /  0.25 mm
18:38 50.9 °F /  10.5 °C 47.2 °F /  8.4 °C 30.00 in /  1015.8 hPa East 1.2 mph /  1.9 km/h 1.2 mph /  1.9 km/h 87 % 0.01 in /  0.25 mm
18:43 50.7 °F /  10.4 °C 47.3 °F /  8.5 °C 29.99 in /  1015.5 hPa East 1.2 mph /  1.9 km/h   88 % 0.01 in /  0.25 mm
18:48 50.6 °F /  10.3 °C 47.2 °F /  8.4 °C 29.99 in /  1015.5 hPa East 1.2 mph /  1.9 km/h 1.2 mph /  1.9 km/h 88 % 0.00 in /  0 mm
18:53 50.5 °F /  10.3 °C 47.1 °F /  8.4 °C 29.99 in /  1015.5 hPa ESE 2.3 mph /  3.7 km/h 2.3 mph /  3.7 km/h 88 % 0.00 in /  0 mm
18:58 50.5 °F /  10.3 °C 47.1 °F /  8.4 °C 30.00 in /  1015.8 hPa ESE 1.2 mph /  1.9 km/h   88 % 0.00 in /  0 mm
19:03 50.5 °F /  10.3 °C 47.1 °F /  8.4 °C 30.00 in /  1015.8 hPa SE 2.3 mph /  3.7 km/h 2.3 mph /  3.7 km/h 88 % 0.00 in /  0 mm
19:08 50.6 °F /  10.3 °C 47.2 °F /  8.4 °C 30.00 in /  1015.8 hPa East 1.0 mph /  1.6 km/h 1.0 mph /  1.6 km/h 88 % 0.00 in /  0 mm
19:13 50.7 °F /  10.4 °C 47.0 °F /  8.3 °C 30.00 in /  1015.8 hPa ESE 2.0 mph /  3.2 km/h 2.0 mph /  3.2 km/h 87 % 0.00 in /  0 mm
19:18 50.8 °F /  10.4 °C 47.1 °F /  8.4 °C 29.99 in /  1015.5 hPa Calm     87 % 0.00 in /  0 mm
19:23 50.8 °F /  10.4 °C 46.8 °F /  8.2 °C 29.99 in /  1015.5 hPa ESE 1.2 mph /  1.9 km/h   86 % 0.00 in /  0 mm
19:28 50.8 °F /  10.4 °C 46.8 °F /  8.2 °C 29.99 in /  1015.5 hPa ESE 1.2 mph /  1.9 km/h 1.2 mph /  1.9 km/h 86 % 0.00 in /  0 mm
19:34 50.8 °F /  10.4 °C 46.8 °F /  8.2 °C 30.00 in /  1015.8 hPa ESE 1.2 mph /  1.9 km/h 1.2 mph /  1.9 km/h 86 % 0.00 in /  0 mm
19:39 50.8 °F /  10.4 °C 46.8 °F /  8.2 °C 29.99 in /  1015.5 hPa ESE 1.2 mph /  1.9 km/h   86 % 0.00 in /  0 mm
19:44 50.9 °F /  10.5 °C 46.6 °F /  8.1 °C 29.99 in /  1015.5 hPa ESE 1.2 mph /  1.9 km/h 1.2 mph /  1.9 km/h 85 % 0.00 in /  0 mm
19:49 50.9 °F /  10.5 °C 46.6 °F /  8.1 °C 29.99 in /  1015.5 hPa Calm     85 % 0.00 in /  0 mm
19:54 50.9 °F /  10.5 °C 46.6 °F /  8.1 °C 29.99 in /  1015.5 hPa ESE 2.3 mph /  3.7 km/h 2.3 mph /  3.7 km/h 85 % 0.00 in /  0 mm
19:59 51.0 °F /  10.6 °C 46.6 °F /  8.1 °C 29.99 in /  1015.5 hPa ESE 1.2 mph /  1.9 km/h 1.2 mph /  1.9 km/h 85 % 0.00 in /  0 mm
20:04 51.0 °F /  10.6 °C 46.6 °F /  8.1 °C 29.99 in /  1015.5 hPa ESE 3.5 mph /  5.6 km/h 3.5 mph /  5.6 km/h 85 % 0.00 in /  0 mm
20:09 51.2 °F /  10.7 °C 46.8 °F /  8.2 °C 29.99 in /  1015.5 hPa ESE 1.2 mph /  1.9 km/h 1.2 mph /  1.9 km/h 85 % 0.00 in /  0 mm
20:14 51.2 °F /  10.7 °C 46.8 °F /  8.2 °C 29.99 in /  1015.5 hPa ESE 1.2 mph /  1.9 km/h 1.2 mph /  1.9 km/h 85 % 0.00 in /  0 mm
20:19 51.2 °F /  10.7 °C 46.8 °F /  8.2 °C 29.99 in /  1015.5 hPa Calm     85 % 0.00 in /  0 mm
20:24 51.1 °F /  10.6 °C 46.7 °F /  8.2 °C 29.99 in /  1015.5 hPa SE 1.2 mph /  1.9 km/h 1.2 mph /  1.9 km/h 85 % 0.00 in /  0 mm
20:29 51.0 °F /  10.6 °C 46.6 °F /  8.1 °C 29.99 in /  1015.5 hPa SSE 2.3 mph /  3.7 km/h 2.3 mph /  3.7 km/h 85 % 0.00 in /  0 mm
20:34 51.0 °F /  10.6 °C 46.6 °F /  8.1 °C 29.99 in /  1015.5 hPa East 1.2 mph /  1.9 km/h 1.2 mph /  1.9 km/h 85 % 0.00 in /  0 mm
20:39 50.9 °F /  10.5 °C 46.6 °F /  8.1 °C 30.00 in /  1015.8 hPa SE 1.2 mph /  1.9 km/h 1.2 mph /  1.9 km/h 85 % 0.00 in /  0 mm
20:44 50.7 °F /  10.4 °C 46.4 °F /  8 °C 30.00 in /  1015.8 hPa Calm     85 % 0.00 in /  0 mm
20:49 50.6 °F /  10.3 °C 46.6 °F /  8.1 °C 29.99 in /  1015.5 hPa Calm     86 % 0.00 in /  0 mm
20:54 50.6 °F /  10.3 °C 46.6 °F /  8.1 °C 30.00 in /  1015.8 hPa SE 1.2 mph /  1.9 km/h 1.2 mph /  1.9 km/h 86 % 0.00 in /  0 mm
20:59 50.6 °F /  10.3 °C 46.3 °F /  7.9 °C 30.00 in /  1015.8 hPa East 1.2 mph /  1.9 km/h 1.2 mph /  1.9 km/h 85 % 0.00 in /  0 mm
21:04 50.7 °F /  10.4 °C 46.4 °F /  8 °C 30.00 in /  1015.8 hPa Calm     85 % 0.00 in /  0 mm
21:09 50.7 °F /  10.4 °C 46.4 °F /  8 °C 30.00 in /  1015.8 hPa ENE 1.2 mph /  1.9 km/h 1.2 mph /  1.9 km/h 85 % 0.00 in /  0 mm
21:14 50.7 °F /  10.4 °C 46.7 °F /  8.2 °C 30.00 in /  1015.8 hPa ESE 1.2 mph /  1.9 km/h   86 % 0.00 in /  0 mm
21:19 50.5 °F /  10.3 °C 46.5 °F /  8.1 °C 30.00 in /  1015.8 hPa Calm     86 % 0.00 in /  0 mm
21:24 50.2 °F /  10.1 °C 46.5 °F /  8.1 °C 30.00 in /  1015.8 hPa Calm     87 % 0.00 in /  0 mm
21:29 50.1 °F /  10.1 °C 46.7 °F /  8.2 °C 30.00 in /  1015.8 hPa Calm     88 % 0.00 in /  0 mm
21:34 50.0 °F /  10 °C 46.6 °F /  8.1 °C 30.00 in /  1015.8 hPa Calm     88 % 0.00 in /  0 mm
21:39 49.8 °F /  9.9 °C 46.7 °F /  8.2 °C 30.00 in /  1015.8 hPa Calm     89 % 0.00 in /  0 mm
21:44 49.7 °F /  9.8 °C 46.6 °F /  8.1 °C 30.00 in /  1015.8 hPa Calm     89 % 0.00 in /  0 mm
21:49 49.7 °F /  9.8 °C 46.6 °F /  8.1 °C 30.00 in /  1015.8 hPa Calm     89 % 0.00 in /  0 mm
21:54 49.7 °F /  9.8 °C 46.6 °F /  8.1 °C 30.00 in /  1015.8 hPa Calm     89 % 0.00 in /  0 mm
21:59 49.7 °F /  9.8 °C 46.6 °F /  8.1 °C 30.00 in /  1015.8 hPa Calm     89 % 0.00 in /  0 mm
22:04 49.7 °F /  9.8 °C 46.6 °F /  8.1 °C 30.00 in /  1015.8 hPa Calm     89 % 0.00 in /  0 mm
22:09 49.7 °F /  9.8 °C 46.6 °F /  8.1 °C 30.00 in /  1015.8 hPa SE 1.2 mph /  1.9 km/h   89 % 0.00 in /  0 mm
22:14 49.6 °F /  9.8 °C 46.5 °F /  8.1 °C 29.99 in /  1015.5 hPa Calm     89 % 0.00 in /  0 mm
22:19 49.7 °F /  9.8 °C 46.6 °F /  8.1 °C 30.00 in /  1015.8 hPa Calm     89 % 0.00 in /  0 mm
22:24 49.7 °F /  9.8 °C 46.6 °F /  8.1 °C 29.99 in /  1015.5 hPa Calm     89 % 0.00 in /  0 mm
22:29 49.6 °F /  9.8 °C 46.8 °F /  8.2 °C 29.99 in /  1015.5 hPa Calm     90 % 0.00 in /  0 mm
22:34 49.5 °F /  9.7 °C 46.4 °F /  8 °C 29.99 in /  1015.5 hPa Calm     89 % 0.00 in /  0 mm
22:39 49.4 °F /  9.7 °C 46.6 °F /  8.1 °C 29.99 in /  1015.5 hPa Calm     90 % 0.00 in /  0 mm
22:44 49.2 °F /  9.6 °C 46.4 °F /  8 °C 29.99 in /  1015.5 hPa Calm     90 % 0.00 in /  0 mm
22:49 48.9 °F /  9.4 °C 46.1 °F /  7.8 °C 29.99 in /  1015.5 hPa Calm     90 % 0.00 in /  0 mm
22:54 48.7 °F /  9.3 °C 46.2 °F /  7.9 °C 29.99 in /  1015.5 hPa Calm     91 % 0.00 in /  0 mm
22:59 48.4 °F /  9.1 °C 45.9 °F /  7.7 °C 29.99 in /  1015.5 hPa Calm     91 % 0.00 in /  0 mm
23:04 48.3 °F /  9.1 °C 46.1 °F /  7.8 °C 29.99 in /  1015.5 hPa Calm     92 % 0.00 in /  0 mm
23:09 48.1 °F /  8.9 °C 45.9 °F /  7.7 °C 29.99 in /  1015.5 hPa Calm     92 % 0.00 in /  0 mm
23:14 48.0 °F /  8.9 °C 45.8 °F /  7.7 °C 29.99 in /  1015.5 hPa Calm     92 % 0.00 in /  0 mm
23:19 47.9 °F /  8.8 °C 45.7 °F /  7.6 °C 29.99 in /  1015.5 hPa Calm     92 % 0.00 in /  0 mm
23:24 47.9 °F /  8.8 °C 45.7 °F /  7.6 °C 29.99 in /  1015.5 hPa Calm     92 % 0.00 in /  0 mm
23:29 48.0 °F /  8.9 °C 46.1 °F /  7.8 °C 29.99 in /  1015.5 hPa Calm     93 % 0.00 in /  0 mm
23:34 48.1 °F /  8.9 °C 46.2 °F /  7.9 °C 29.99 in /  1015.5 hPa Calm     93 % 0.00 in /  0 mm
23:39 48.3 °F /  9.1 °C 46.4 °F /  8 °C 29.99 in /  1015.5 hPa Calm     93 % 0.00 in /  0 mm
23:44 48.4 °F /  9.1 °C 46.5 °F /  8.1 °C 29.99 in /  1015.5 hPa Calm     93 % 0.00 in /  0 mm
23:49 48.5 °F /  9.2 °C 46.6 °F /  8.1 °C 29.99 in /  1015.5 hPa Calm     93 % 0.00 in /  0 mm
23:54 48.6 °F /  9.2 °C 46.7 °F /  8.2 °C 30.00 in /  1015.8 hPa Calm     93 % 0.01 in /  0.25 mm
23:59 48.7 °F /  9.3 °C 46.8 °F /  8.2 °C 29.99 in /  1015.5 hPa Calm     93 % 0.01 in /  0.25 mm
Park Place, Exeter, Tulare County, California, USA
Compliments of Weather Underground - 2.75 mb